This is the latest recevied weather packets stored in our database for station/object DH5DY-6. If no packets are shown the sender has not sent any weather packets the latest 10 day(s).
| Time | Temp. | Humidity | Pressure | Rain* | Wind** | Luminosity | Snow |
|---|---|---|---|---|---|---|---|
| 1787622721 | 10.56° C | 88% | 1012.9 hPa | 0 mm | - | 0 W/m² | - |
| 1787622121 | 10.56° C | 87% | 1012.9 hPa | 0 mm | - | 0 W/m² | - |
| 1787620921 | 10.56° C | 87% | 1013.2 hPa | 0 mm | - | 0 W/m² | - |
| 1787620321 | 10.56° C | 86% | 1013.3 hPa | 0 mm | - | 0 W/m² | - |
| 1787619720 | 10.56° C | 86% | 1013.5 hPa | 0 mm | - | 0 W/m² | - |
| 1787619120 | 10.56° C | 86% | 1013.5 hPa | 0 mm | - | 0 W/m² | - |
| 1787618520 | 11.11° C | 85% | 1013.8 hPa | 0 mm | - | 0 W/m² | - |
| 1787617921 | 11.11° C | 85% | 1013.8 hPa | 0 mm | - | 0 W/m² | - |
| 1787617320 | 11.11° C | 85% | 1013.7 hPa | 0 mm | - | 0 W/m² | - |
| 1787616721 | 11.11° C | 85% | 1013.8 hPa | 0 mm | - | 0 W/m² | - |
| 1787615520 | 11.67° C | 85% | 1014 hPa | 0 mm | - | 0 W/m² | - |
| 1787614920 | 11.67° C | 84% | 1014.2 hPa | 0 mm | - | 0 W/m² | - |
| 1787613721 | 11.67° C | 83% | 1014 hPa | 0 mm | - | 0 W/m² | - |
| 1787613120 | 12.22° C | 82% | 1014.2 hPa | 0 mm | - | 0 W/m² | - |
| 1787611920 | 12.22° C | 81% | 1014.6 hPa | 0 mm | - | 0 W/m² | - |
| 1787611319 | 12.22° C | 81% | 1014.5 hPa | 0 mm | - | 0 W/m² | - |
| 1787610120 | 12.22° C | 80% | 1014.4 hPa | 0 mm | - | 0 W/m² | - |
| 1787609520 | 12.78° C | 79% | 1014.5 hPa | 0 mm | - | 0 W/m² | - |
| 1787608320 | 13.33° C | 76% | 1014.6 hPa | 0 mm | - | 0 W/m² | - |
| 1787607720 | 13.89° C | 74% | 1014.8 hPa | 0 mm | - | 0 W/m² | - |
| 1787606519 | 14.44° C | 74% | 1014.9 hPa | 0 mm | - | 0 W/m² | - |
| 1787605920 | 14.44° C | 73% | 1015 hPa | 0 mm | - | 0 W/m² | - |
| 1787604651 | 17.78° C | 56% | 1022.5 hPa | 0 mm | - | 406 W/m² | - |
| 1787604051 | 17.78° C | 56% | 1022.5 hPa | 0 mm | - | 406 W/m² | - |
| 1787603451 | 17.78° C | 56% | 1022.5 hPa | 0 mm | - | 406 W/m² | - |
* Rain latest hour (hover to see other rain measurements)
** Current wind speed in m/s (hover to see current wind gust speed)